createdAt,value
2023-03-06T00:16:08.936Z,2.02
2023-03-06T00:23:49.496Z,2.03
2023-03-06T00:31:29.244Z,2.06
2023-03-06T00:35:16.057Z,2.04
2023-03-06T00:43:13.523Z,1.98
2023-03-06T00:46:51.445Z,1.97
2023-03-06T00:50:38.244Z,2.03
2023-03-06T00:54:22.590Z,1.89
2023-03-06T01:02:16.701Z,1.93
2023-03-06T01:06:04.326Z,1.96
2023-03-06T01:09:47.414Z,1.98
2023-03-06T01:13:35.526Z,2.00
2023-03-06T01:17:11.541Z,1.99
2023-03-06T01:21:17.832Z,2.02
2023-03-06T01:24:41.561Z,2.03
2023-03-06T01:28:17.209Z,2.02
2023-03-06T01:32:01.552Z,2.07
2023-03-06T01:35:48.665Z,2.02
2023-03-06T01:40:08.197Z,2.08
2023-03-06T01:47:38.701Z,2.04
2023-03-06T01:51:08.362Z,2.05
2023-03-06T01:58:38.414Z,2.14
2023-03-06T02:02:17.329Z,2.03
2023-03-06T02:13:56.412Z,2.04
2023-03-06T02:17:37.416Z,2.05
2023-03-06T02:21:29.748Z,2.07
2023-03-06T02:25:07.746Z,2.17
2023-03-06T02:37:05.260Z,2.09
2023-03-06T02:48:56.657Z,2.15
2023-03-06T02:52:02.156Z,2.15
2023-03-06T02:55:05.736Z,2.23
2023-03-06T02:58:14.050Z,2.24
2023-03-06T03:01:19.691Z,2.15
2023-03-06T03:04:42.285Z,2.20
2023-03-06T03:07:48.786Z,2.19
2023-03-06T03:10:52.890Z,2.21
2023-03-06T03:13:55.939Z,2.15
2023-03-06T03:17:00.553Z,2.19
2023-03-06T03:20:11.277Z,2.21
2023-03-06T03:23:16.243Z,2.17
2023-03-06T03:26:27.158Z,2.14
2023-03-06T03:29:40.784Z,2.22
2023-03-06T03:32:43.441Z,2.21
2023-03-06T03:35:56.958Z,2.19
2023-03-06T03:39:00.278Z,2.20
2023-03-06T03:42:03.655Z,2.17
2023-03-06T03:45:07.103Z,2.17
2023-03-06T03:48:13.215Z,2.18
2023-03-06T03:51:16.732Z,2.19
2023-03-06T03:54:20.569Z,2.28
2023-03-06T03:57:23.959Z,2.24
2023-03-06T04:00:28.230Z,2.28
2023-03-06T04:03:37.228Z,2.18
2023-03-06T04:07:02.619Z,2.16
2023-03-06T04:10:43.212Z,2.17
2023-03-06T04:14:08.740Z,2.17
2023-03-06T04:17:11.662Z,2.20
2023-03-06T04:20:15.151Z,2.25
2023-03-06T04:23:19.516Z,2.25
2023-03-06T04:26:24.163Z,2.25
2023-03-06T04:29:28.938Z,2.22
2023-03-06T04:32:32.827Z,2.19
2023-03-06T04:35:37.860Z,2.29
2023-03-06T04:39:14.377Z,2.28
2023-03-06T04:42:20.025Z,2.30
2023-03-06T04:45:26.148Z,2.38
2023-03-06T04:48:31.346Z,2.28
2023-03-06T04:51:43.192Z,2.34
2023-03-06T04:54:48.882Z,2.32
2023-03-06T04:57:53.803Z,2.40
2023-03-06T05:00:57.177Z,2.42
2023-03-06T05:04:00.772Z,2.44
2023-03-06T05:07:04.482Z,2.40
2023-03-06T05:10:20.404Z,2.38
2023-03-06T05:13:29.031Z,2.40
2023-03-06T05:16:32.877Z,2.43
2023-03-06T05:19:37.006Z,2.46
2023-03-06T05:22:41.145Z,2.50
2023-03-06T05:25:44.600Z,2.49
2023-03-06T05:28:52.024Z,2.51
2023-03-06T05:31:56.766Z,2.48
2023-03-06T05:35:05.060Z,2.48
2023-03-06T05:38:10.931Z,2.50
2023-03-06T05:41:17.369Z,2.51
2023-03-06T05:44:20.989Z,2.56
2023-03-06T05:47:23.915Z,2.52
2023-03-06T05:50:27.379Z,2.55
2023-03-06T05:53:31.506Z,2.51
2023-03-06T05:56:36.086Z,2.58
2023-03-06T05:59:43.236Z,2.63
2023-03-06T06:02:46.975Z,2.63
2023-03-06T06:05:50.999Z,2.68
2023-03-06T06:08:55.393Z,2.71
2023-03-06T06:12:03.881Z,2.72
2023-03-06T06:15:08.831Z,2.80
2023-03-06T06:18:12.405Z,2.82
2023-03-06T06:21:16.280Z,2.87
2023-03-06T06:24:24.896Z,2.91
2023-03-06T06:27:27.570Z,2.99
2023-03-06T06:30:34.123Z,3.03
2023-03-06T06:33:36.747Z,3.07
2023-03-06T06:37:15.590Z,3.17
2023-03-06T06:40:38.827Z,3.23
2023-03-06T06:43:41.449Z,3.30
2023-03-06T06:50:13.285Z,3.45
2023-03-06T06:53:16.325Z,3.57
2023-03-06T06:56:23.470Z,3.61
2023-03-06T06:59:53.398Z,3.74
2023-03-06T07:02:58.990Z,3.84
2023-03-06T07:06:02.926Z,3.80
2023-03-06T07:09:05.838Z,3.80
2023-03-06T07:12:09.237Z,3.77
2023-03-06T07:15:14.840Z,3.90
2023-03-06T07:18:17.966Z,3.87
2023-03-06T07:21:21.153Z,3.99
2023-03-06T07:24:25.088Z,4.07
2023-03-06T07:27:28.462Z,4.15
2023-03-06T07:30:34.083Z,4.30
2023-03-06T07:33:56.589Z,4.19
2023-03-06T07:37:01.762Z,4.17
2023-03-06T07:40:17.256Z,4.31
2023-03-06T07:43:22.128Z,4.05
2023-03-06T07:46:25.710Z,3.71
2023-03-06T07:49:29.289Z,3.68
2023-03-06T07:52:36.681Z,3.80
2023-03-06T07:55:41.739Z,3.90
2023-03-06T07:59:04.418Z,4.19
2023-03-06T08:02:08.270Z,4.32
2023-03-06T08:05:17.954Z,4.46
2023-03-06T08:08:24.538Z,4.28
2023-03-06T08:11:32.248Z,4.66
2023-03-06T08:14:35.753Z,4.99
2023-03-06T08:17:40.268Z,4.86
2023-03-06T08:20:43.367Z,4.87
2023-03-06T08:24:17.170Z,4.90
2023-03-06T08:27:40.171Z,4.71
2023-03-06T08:30:43.928Z,4.76
2023-03-06T08:33:51.090Z,5.02
2023-03-06T08:36:54.487Z,5.25
2023-03-06T08:40:03.565Z,5.33
2023-03-06T08:43:19.853Z,5.15
2023-03-06T08:46:42.495Z,5.65
2023-03-06T08:49:46.770Z,5.84
2023-03-06T08:52:50.418Z,6.30
2023-03-06T08:55:56.352Z,6.00
2023-03-06T08:59:33.193Z,6.54
2023-03-06T09:02:37.558Z,6.54
2023-03-06T09:06:00.531Z,6.88
2023-03-06T09:09:06.057Z,6.77
2023-03-06T09:12:50.707Z,7.35
2023-03-06T09:16:21.667Z,6.75
2023-03-06T09:20:25.300Z,7.29
2023-03-06T09:24:14.999Z,7.90
2023-03-06T09:27:22.982Z,8.23
2023-03-06T09:31:13.484Z,8.12
2023-03-06T09:34:38.480Z,8.55
2023-03-06T09:37:49.149Z,8.72
2023-03-06T09:41:25.274Z,8.34
2023-03-06T09:44:35.452Z,7.96
2023-03-06T09:47:46.883Z,8.33
2023-03-06T09:51:07.848Z,8.09
2023-03-06T09:54:37.592Z,7.80
2023-03-06T09:57:51.200Z,8.55
2023-03-06T10:01:05.012Z,8.11
2023-03-06T10:04:28.456Z,8.09
2023-03-06T10:07:45.763Z,7.89
2023-03-06T10:10:59.655Z,8.06
2023-03-06T10:14:28.874Z,7.94
2023-03-06T10:17:41.405Z,8.21
2023-03-06T10:21:19.495Z,8.07
2023-03-06T10:24:45.829Z,8.04
2023-03-06T10:27:58.231Z,7.98
2023-03-06T10:34:52.927Z,7.25
2023-03-06T10:38:04.648Z,7.09
2023-03-06T10:41:18.936Z,7.13
2023-03-06T10:44:42.164Z,6.93
2023-03-06T10:47:47.008Z,6.76
2023-03-06T10:51:20.259Z,6.89
2023-03-06T10:54:53.307Z,6.93
2023-03-06T11:06:37.295Z,7.27
2023-03-06T11:10:23.543Z,7.75
2023-03-06T11:22:22.254Z,8.31
2023-03-06T11:26:17.986Z,8.13
2023-03-06T11:29:38.923Z,8.21
2023-03-06T11:33:26.889Z,8.42
2023-03-06T11:41:26.165Z,8.80
2023-03-06T11:45:15.383Z,8.59
2023-03-06T11:49:13.362Z,8.62
2023-03-06T11:53:03.417Z,8.46
2023-03-06T11:57:43.512Z,8.61
2023-03-06T12:01:13.120Z,8.58
2023-03-06T12:04:59.668Z,8.50
2023-03-06T12:08:46.610Z,8.37
2023-03-06T12:12:32.731Z,8.45
2023-03-06T12:16:18.255Z,8.45
2023-03-06T12:20:18.138Z,8.38
2023-03-06T12:28:18.639Z,8.95
2023-03-06T12:31:55.176Z,9.01
2023-03-06T12:39:51.178Z,9.02
2023-03-06T12:43:48.306Z,8.84
2023-03-06T12:46:59.722Z,8.42
2023-03-06T12:50:13.667Z,8.28
2023-03-06T12:53:49.483Z,8.47
2023-03-06T12:56:57.128Z,8.48
2023-03-06T13:00:02.203Z,8.41
2023-03-06T13:03:45.136Z,8.32
2023-03-06T13:07:07.204Z,8.37
2023-03-06T13:10:28.162Z,8.32
2023-03-06T13:14:37.487Z,8.22
2023-03-06T13:17:48.799Z,8.60
2023-03-06T13:25:33.682Z,8.62
2023-03-06T13:29:38.425Z,8.70
2023-03-06T13:33:22.501Z,8.45
2023-03-06T13:45:08.383Z,8.53
2023-03-06T13:48:45.550Z,8.54
2023-03-06T13:52:30.030Z,8.46
2023-03-06T13:56:36.615Z,8.55
2023-03-06T14:00:19.337Z,8.66
2023-03-06T14:03:50.259Z,8.54
2023-03-06T14:07:30.940Z,8.76
2023-03-06T14:11:19.969Z,8.67
2023-03-06T14:14:42.170Z,8.65
2023-03-06T14:18:31.584Z,8.27
2023-03-06T14:21:44.601Z,8.14
2023-03-06T14:25:02.999Z,7.49
2023-03-06T14:28:27.689Z,7.18
2023-03-06T14:32:11.551Z,6.90
2023-03-06T14:35:35.544Z,6.93
2023-03-06T14:39:02.686Z,6.98
2023-03-06T14:42:29.801Z,6.63
2023-03-06T14:45:34.289Z,6.60
2023-03-06T14:48:49.293Z,6.39
2023-03-06T14:52:33.059Z,6.41
2023-03-06T14:56:03.525Z,6.47
2023-03-06T14:59:39.502Z,6.54
2023-03-06T15:03:28.235Z,6.49
2023-03-06T15:11:04.973Z,6.02
2023-03-06T15:15:40.678Z,5.83
2023-03-06T15:19:21.085Z,6.18
2023-03-06T15:22:59.822Z,5.90
2023-03-06T15:26:19.167Z,5.83
2023-03-06T15:30:30.872Z,5.77
2023-03-06T15:34:24.907Z,5.88
2023-03-06T15:37:58.378Z,5.86
2023-03-06T15:41:43.551Z,5.89
2023-03-06T15:50:04.452Z,5.65
2023-03-06T15:53:37.035Z,5.75
2023-03-06T15:57:55.459Z,5.45
2023-03-06T16:01:38.626Z,5.49
2023-03-06T16:05:18.034Z,5.42
2023-03-06T16:08:46.896Z,5.52
2023-03-06T16:12:31.877Z,5.34
2023-03-06T16:16:32.036Z,5.30
2023-03-06T16:20:22.744Z,5.24
2023-03-06T16:23:49.819Z,5.20
2023-03-06T16:27:28.554Z,5.17
2023-03-06T16:30:36.319Z,5.08
2023-03-06T16:34:05.817Z,4.96
2023-03-06T16:37:27.002Z,4.86
2023-03-06T16:41:05.131Z,4.75
2023-03-06T16:45:07.979Z,4.67
2023-03-06T16:48:32.766Z,4.52
2023-03-06T16:51:56.339Z,4.50
2023-03-06T16:54:58.894Z,4.55
2023-03-06T16:58:11.398Z,4.64
2023-03-06T17:01:45.876Z,4.52
2023-03-06T17:09:25.846Z,4.43
2023-03-06T17:13:11.373Z,4.56
2023-03-06T17:16:46.622Z,4.48
2023-03-06T17:20:23.913Z,4.36
2023-03-06T17:23:39.696Z,4.37
2023-03-06T17:27:02.955Z,4.30
2023-03-06T17:30:30.449Z,4.34
2023-03-06T17:33:33.601Z,4.29
2023-03-06T17:36:57.102Z,4.23
2023-03-06T17:40:09.978Z,4.24
2023-03-06T17:43:57.580Z,4.08
2023-03-06T17:47:35.883Z,4.11
2023-03-06T17:51:11.529Z,4.11
2023-03-06T17:54:16.595Z,4.05
2023-03-06T17:57:19.607Z,4.03
2023-03-06T18:00:23.867Z,3.98
2023-03-06T18:03:28.026Z,3.96
2023-03-06T18:06:51.088Z,3.94
2023-03-06T18:09:54.892Z,3.93
2023-03-06T18:13:02.084Z,3.94
2023-03-06T18:16:06.580Z,3.94
2023-03-06T18:19:11.073Z,3.96
2023-03-06T18:22:13.945Z,3.96
2023-03-06T18:25:17.661Z,3.94
2023-03-06T18:28:50.496Z,4.01
2023-03-06T18:32:26.053Z,4.02
2023-03-06T18:36:24.629Z,4.06
2023-03-06T18:44:01.190Z,3.68
2023-03-06T18:47:10.624Z,3.68
2023-03-06T18:50:17.556Z,3.68
2023-03-06T18:53:21.642Z,3.66
2023-03-06T18:56:28.035Z,3.65
2023-03-06T18:59:33.926Z,3.65
2023-03-06T19:02:37.339Z,3.65
2023-03-06T19:05:43.094Z,3.65
2023-03-06T19:08:47.543Z,3.67
2023-03-06T19:11:52.127Z,3.66
2023-03-06T19:14:59.090Z,3.80
2023-03-06T19:18:03.235Z,3.87
2023-03-06T19:21:21.707Z,3.86
2023-03-06T19:24:51.302Z,3.72
2023-03-06T19:28:34.635Z,3.73
2023-03-06T19:32:06.791Z,3.63
2023-03-06T19:35:24.980Z,3.58
2023-03-06T19:39:05.981Z,3.41
2023-03-06T19:42:38.225Z,3.38
2023-03-06T19:46:05.474Z,3.23
2023-03-06T19:49:35.813Z,3.04
2023-03-06T19:52:58.087Z,2.98
2023-03-06T19:56:39.269Z,2.99
2023-03-06T20:00:00.022Z,2.93
2023-03-06T20:03:41.377Z,2.89
2023-03-06T20:06:56.462Z,2.85
2023-03-06T20:14:47.954Z,2.76
2023-03-06T20:17:51.588Z,2.66
2023-03-06T20:21:15.335Z,2.68
2023-03-06T20:24:27.210Z,2.76
2023-03-06T20:27:31.362Z,2.73
2023-03-06T20:30:55.293Z,2.74
2023-03-06T20:34:21.211Z,2.74
2023-03-06T20:37:45.050Z,2.75
2023-03-06T20:40:57.860Z,2.77
2023-03-06T20:44:04.873Z,2.76
2023-03-06T20:48:00.867Z,2.78
2023-03-06T20:51:29.095Z,2.81
2023-03-06T20:54:54.217Z,2.78
2023-03-06T20:58:27.675Z,2.81
2023-03-06T21:02:11.513Z,2.85
2023-03-06T21:05:35.259Z,2.85
2023-03-06T21:08:41.349Z,2.88
2023-03-06T21:12:18.476Z,2.89
2023-03-06T21:16:38.025Z,3.03
2023-03-06T21:20:25.338Z,2.85
2023-03-06T21:23:53.270Z,3.01
2023-03-06T21:27:23.865Z,2.89
2023-03-06T21:30:34.689Z,2.86
2023-03-06T21:33:46.499Z,2.87
2023-03-06T21:37:05.363Z,2.87
2023-03-06T21:41:20.433Z,2.78
2023-03-06T21:45:00.120Z,2.70
2023-03-06T21:48:24.498Z,2.58
2023-03-06T21:51:41.099Z,2.49
2023-03-06T21:54:44.246Z,2.41
2023-03-06T21:58:04.580Z,2.37
2023-03-06T22:01:31.277Z,2.30
2023-03-06T22:05:07.825Z,2.22
2023-03-06T22:08:31.820Z,2.14
2023-03-06T22:12:04.222Z,2.16
2023-03-06T22:15:09.980Z,2.07
2023-03-06T22:18:31.158Z,2.03
2023-03-06T22:22:11.374Z,2.03
2023-03-06T22:25:40.023Z,2.04
2023-03-06T22:29:05.165Z,2.05
2023-03-06T22:32:35.582Z,2.12
2023-03-06T22:36:16.166Z,2.17
2023-03-06T22:40:02.186Z,2.14
2023-03-06T22:43:37.893Z,2.06
2023-03-06T22:46:44.259Z,1.99
2023-03-06T22:53:53.988Z,1.96
2023-03-06T22:57:24.305Z,2.01
2023-03-06T23:00:42.706Z,2.07
2023-03-06T23:04:31.984Z,2.10
2023-03-06T23:07:34.976Z,2.15
2023-03-06T23:11:16.548Z,2.19
2023-03-06T23:15:03.269Z,2.24
2023-03-06T23:23:00.246Z,2.23
2023-03-06T23:26:26.243Z,2.21
2023-03-06T23:29:50.226Z,2.10
2023-03-06T23:33:27.499Z,2.06
2023-03-06T23:36:56.642Z,1.98
2023-03-06T23:45:18.214Z,1.73
2023-03-06T23:48:30.334Z,1.65
2023-03-06T23:52:33.526Z,1.59
